sim
Sign-in with your pilot id or email,
or register
Callsign
Passwort

Schedule Details

Flight Number: DLH2303
Departure: Amsterdam Schiphol Airport (EHAM) at 10:00
Arrival: Munich Airport (EDDM) at 11:20
Route: Lufthansa Passenger Schedule. Enter filed route here before submitting Pirep.

Weather Information
Getting current METAR information for EHAM 221355Z 27004KT 160V320 CAVOK 22/10 Q1009 NOSIG
Getting current METAR information for EDDM 221350Z VRB03KT 9999 FEW040 24/15 Q1012 NOSIG

Schedule Frequency

Route Map